sensor_id;sensor_type;location;lat;lon;timestamp;P1;durP1;ratioP1;P2;durP2;ratioP2
37425;SDS011;23285;50.180;7.036;2022-12-26T00:02:18;6.13;;;4.03;;
37425;SDS011;23285;50.180;7.036;2022-12-26T00:05:03;6.10;;;3.70;;
37425;SDS011;23285;50.180;7.036;2022-12-26T00:07:49;4.70;;;3.47;;
37425;SDS011;23285;50.180;7.036;2022-12-26T00:10:34;6.47;;;4.40;;
37425;SDS011;23285;50.180;7.036;2022-12-26T00:13:19;5.10;;;3.43;;
37425;SDS011;23285;50.180;7.036;2022-12-26T00:16:09;7.50;;;4.00;;
37425;SDS011;23285;50.180;7.036;2022-12-26T00:18:54;6.83;;;3.80;;
37425;SDS011;23285;50.180;7.036;2022-12-26T00:21:40;4.90;;;3.40;;
37425;SDS011;23285;50.180;7.036;2022-12-26T00:24:26;6.53;;;4.80;;
37425;SDS011;23285;50.180;7.036;2022-12-26T00:27:11;6.73;;;3.70;;
37425;SDS011;23285;50.180;7.036;2022-12-26T00:29:56;7.97;;;4.47;;
37425;SDS011;23285;50.180;7.036;2022-12-26T00:32:42;5.37;;;3.70;;
37425;SDS011;23285;50.180;7.036;2022-12-26T00:35:27;4.20;;;3.30;;
37425;SDS011;23285;50.180;7.036;2022-12-26T00:38:12;7.13;;;3.80;;
37425;SDS011;23285;50.180;7.036;2022-12-26T00:40:57;7.50;;;3.43;;
37425;SDS011;23285;50.180;7.036;2022-12-26T00:43:43;7.67;;;4.17;;
37425;SDS011;23285;50.180;7.036;2022-12-26T00:46:28;4.80;;;3.27;;
37425;SDS011;23285;50.180;7.036;2022-12-26T00:49:13;7.97;;;3.63;;
37425;SDS011;23285;50.180;7.036;2022-12-26T00:51:59;5.60;;;3.40;;
37425;SDS011;23285;50.180;7.036;2022-12-26T00:54:44;4.63;;;3.67;;
37425;SDS011;23285;50.180;7.036;2022-12-26T00:57:30;7.53;;;3.53;;
37425;SDS011;23285;50.180;7.036;2022-12-26T01:00:15;6.17;;;3.37;;
37425;SDS011;23285;50.180;7.036;2022-12-26T01:03:00;6.00;;;3.17;;
37425;SDS011;23285;50.180;7.036;2022-12-26T01:05:47;5.23;;;3.80;;
37425;SDS011;23285;50.180;7.036;2022-12-26T01:08:33;6.73;;;3.63;;
37425;SDS011;23285;50.180;7.036;2022-12-26T01:11:19;8.63;;;3.50;;
37425;SDS011;23285;50.180;7.036;2022-12-26T01:14:23;11.83;;;4.00;;
37425;SDS011;23285;50.180;7.036;2022-12-26T01:17:08;6.80;;;3.60;;
37425;SDS011;23285;50.180;7.036;2022-12-26T01:19:54;8.33;;;3.60;;
37425;SDS011;23285;50.180;7.036;2022-12-26T01:22:39;7.53;;;3.10;;
37425;SDS011;23285;50.180;7.036;2022-12-26T01:25:24;4.37;;;3.50;;
37425;SDS011;23285;50.180;7.036;2022-12-26T01:28:10;7.93;;;3.50;;
37425;SDS011;23285;50.180;7.036;2022-12-26T01:30:59;5.10;;;3.17;;
37425;SDS011;23285;50.180;7.036;2022-12-26T01:33:45;4.10;;;3.40;;
37425;SDS011;23285;50.180;7.036;2022-12-26T01:36:30;5.87;;;3.40;;
37425;SDS011;23285;50.180;7.036;2022-12-26T01:39:15;5.70;;;3.20;;
37425;SDS011;23285;50.180;7.036;2022-12-26T01:42:01;6.57;;;3.83;;
37425;SDS011;23285;50.180;7.036;2022-12-26T01:48:03;4.60;;;3.20;;
37425;SDS011;23285;50.180;7.036;2022-12-26T01:50:56;8.67;;;3.83;;
37425;SDS011;23285;50.180;7.036;2022-12-26T01:53:44;6.77;;;3.50;;
37425;SDS011;23285;50.180;7.036;2022-12-26T01:56:34;8.07;;;3.77;;
37425;SDS011;23285;50.180;7.036;2022-12-26T01:59:23;5.57;;;3.80;;
37425;SDS011;23285;50.180;7.036;2022-12-26T02:02:10;6.83;;;3.73;;
37425;SDS011;23285;50.180;7.036;2022-12-26T02:04:56;6.83;;;3.57;;
37425;SDS011;23285;50.180;7.036;2022-12-26T02:08:16;5.07;;;3.40;;
37425;SDS011;23285;50.180;7.036;2022-12-26T02:11:13;7.73;;;3.47;;
37425;SDS011;23285;50.180;7.036;2022-12-26T02:14:06;5.80;;;3.47;;
37425;SDS011;23285;50.180;7.036;2022-12-26T02:16:52;9.13;;;4.10;;
37425;SDS011;23285;50.180;7.036;2022-12-26T02:19:49;7.10;;;3.33;;
37425;SDS011;23285;50.180;7.036;2022-12-26T02:28:56;10.37;;;4.07;;
37425;SDS011;23285;50.180;7.036;2022-12-26T02:32:00;6.77;;;3.83;;
37425;SDS011;23285;50.180;7.036;2022-12-26T02:46:42;7.97;;;3.70;;
37425;SDS011;23285;50.180;7.036;2022-12-26T02:56:05;4.87;;;3.10;;
37425;SDS011;23285;50.180;7.036;2022-12-26T03:09:09;8.87;;;3.93;;
37425;SDS011;23285;50.180;7.036;2022-12-26T03:15:21;7.67;;;3.20;;
37425;SDS011;23285;50.180;7.036;2022-12-26T03:18:09;6.53;;;3.30;;
37425;SDS011;23285;50.180;7.036;2022-12-26T03:20:55;9.30;;;4.07;;
37425;SDS011;23285;50.180;7.036;2022-12-26T03:23:41;6.57;;;3.70;;
37425;SDS011;23285;50.180;7.036;2022-12-26T03:26:31;7.80;;;3.90;;
37425;SDS011;23285;50.180;7.036;2022-12-26T03:29:24;5.27;;;3.20;;
37425;SDS011;23285;50.180;7.036;2022-12-26T03:32:27;6.97;;;3.50;;
37425;SDS011;23285;50.180;7.036;2022-12-26T03:35:29;5.83;;;3.03;;
37425;SDS011;23285;50.180;7.036;2022-12-26T03:38:15;6.93;;;3.47;;
37425;SDS011;23285;50.180;7.036;2022-12-26T03:41:12;10.93;;;3.60;;
37425;SDS011;23285;50.180;7.036;2022-12-26T03:44:31;5.50;;;3.23;;
37425;SDS011;23285;50.180;7.036;2022-12-26T03:47:38;5.80;;;3.80;;
37425;SDS011;23285;50.180;7.036;2022-12-26T03:50:44;5.73;;;3.57;;
37425;SDS011;23285;50.180;7.036;2022-12-26T03:53:54;5.40;;;3.37;;
37425;SDS011;23285;50.180;7.036;2022-12-26T03:57:23;5.23;;;3.60;;
37425;SDS011;23285;50.180;7.036;2022-12-26T04:00:28;8.33;;;4.23;;
37425;SDS011;23285;50.180;7.036;2022-12-26T04:03:33;11.23;;;4.23;;
37425;SDS011;23285;50.180;7.036;2022-12-26T04:07:00;6.17;;;3.50;;
37425;SDS011;23285;50.180;7.036;2022-12-26T04:10:03;9.83;;;4.20;;
37425;SDS011;23285;50.180;7.036;2022-12-26T04:13:18;9.23;;;3.27;;
37425;SDS011;23285;50.180;7.036;2022-12-26T04:16:36;5.17;;;2.97;;
37425;SDS011;23285;50.180;7.036;2022-12-26T04:22:43;5.90;;;3.43;;
37425;SDS011;23285;50.180;7.036;2022-12-26T04:29:25;6.93;;;3.93;;
37425;SDS011;23285;50.180;7.036;2022-12-26T04:32:43;7.20;;;3.90;;
37425;SDS011;23285;50.180;7.036;2022-12-26T04:35:51;5.00;;;3.30;;
37425;SDS011;23285;50.180;7.036;2022-12-26T04:39:02;9.10;;;3.90;;
37425;SDS011;23285;50.180;7.036;2022-12-26T04:42:10;6.37;;;2.87;;
37425;SDS011;23285;50.180;7.036;2022-12-26T04:45:15;8.67;;;3.40;;
37425;SDS011;23285;50.180;7.036;2022-12-26T04:48:00;6.43;;;2.90;;
37425;SDS011;23285;50.180;7.036;2022-12-26T04:51:17;6.97;;;3.47;;
37425;SDS011;23285;50.180;7.036;2022-12-26T04:54:02;5.97;;;3.03;;
37425;SDS011;23285;50.180;7.036;2022-12-26T04:56:48;6.30;;;2.77;;
37425;SDS011;23285;50.180;7.036;2022-12-26T04:59:33;5.27;;;2.87;;
37425;SDS011;23285;50.180;7.036;2022-12-26T05:02:18;7.03;;;2.90;;
37425;SDS011;23285;50.180;7.036;2022-12-26T05:05:21;5.70;;;3.20;;
37425;SDS011;23285;50.180;7.036;2022-12-26T05:08:26;5.20;;;2.67;;
37425;SDS011;23285;50.180;7.036;2022-12-26T05:11:35;5.73;;;2.57;;
37425;SDS011;23285;50.180;7.036;2022-12-26T05:14:20;8.53;;;3.40;;
37425;SDS011;23285;50.180;7.036;2022-12-26T05:17:06;6.73;;;3.30;;
37425;SDS011;23285;50.180;7.036;2022-12-26T05:20:11;8.43;;;3.07;;
37425;SDS011;23285;50.180;7.036;2022-12-26T05:23:19;4.97;;;3.10;;
37425;SDS011;23285;50.180;7.036;2022-12-26T05:26:25;4.47;;;2.70;;
37425;SDS011;23285;50.180;7.036;2022-12-26T05:29:29;5.93;;;3.30;;
37425;SDS011;23285;50.180;7.036;2022-12-26T05:32:14;8.90;;;3.60;;
37425;SDS011;23285;50.180;7.036;2022-12-26T05:35:18;4.43;;;2.70;;
37425;SDS011;23285;50.180;7.036;2022-12-26T05:38:05;6.07;;;2.60;;
37425;SDS011;23285;50.180;7.036;2022-12-26T05:40:51;4.60;;;2.60;;
37425;SDS011;23285;50.180;7.036;2022-12-26T05:43:36;4.47;;;2.40;;
37425;SDS011;23285;50.180;7.036;2022-12-26T05:46:21;4.67;;;2.40;;
37425;SDS011;23285;50.180;7.036;2022-12-26T05:49:07;8.67;;;2.30;;
37425;SDS011;23285;50.180;7.036;2022-12-26T05:51:52;5.43;;;2.77;;
37425;SDS011;23285;50.180;7.036;2022-12-26T05:54:37;6.53;;;2.67;;
37425;SDS011;23285;50.180;7.036;2022-12-26T05:57:22;4.97;;;2.20;;
37425;SDS011;23285;50.180;7.036;2022-12-26T06:00:07;6.13;;;2.53;;
37425;SDS011;23285;50.180;7.036;2022-12-26T06:02:53;6.90;;;3.37;;
37425;SDS011;23285;50.180;7.036;2022-12-26T06:05:38;4.70;;;2.70;;
37425;SDS011;23285;50.180;7.036;2022-12-26T06:08:23;5.87;;;2.73;;
37425;SDS011;23285;50.180;7.036;2022-12-26T06:11:10;4.27;;;3.00;;
37425;SDS011;23285;50.180;7.036;2022-12-26T06:13:56;8.23;;;2.83;;
37425;SDS011;23285;50.180;7.036;2022-12-26T06:16:42;5.80;;;3.50;;
37425;SDS011;23285;50.180;7.036;2022-12-26T06:19:27;6.57;;;3.10;;
37425;SDS011;23285;50.180;7.036;2022-12-26T06:22:12;4.77;;;1.77;;
37425;SDS011;23285;50.180;7.036;2022-12-26T06:24:58;4.20;;;1.53;;
37425;SDS011;23285;50.180;7.036;2022-12-26T06:27:43;4.57;;;1.07;;
37425;SDS011;23285;50.180;7.036;2022-12-26T06:30:28;2.00;;;1.03;;
37425;SDS011;23285;50.180;7.036;2022-12-26T06:33:13;2.67;;;1.10;;
37425;SDS011;23285;50.180;7.036;2022-12-26T06:36:04;1.00;;;0.90;;
37425;SDS011;23285;50.180;7.036;2022-12-26T06:38:51;1.93;;;1.00;;
37425;SDS011;23285;50.180;7.036;2022-12-26T06:41:36;6.13;;;0.90;;
37425;SDS011;23285;50.180;7.036;2022-12-26T06:44:21;1.23;;;0.90;;
37425;SDS011;23285;50.180;7.036;2022-12-26T06:47:07;1.60;;;0.80;;
37425;SDS011;23285;50.180;7.036;2022-12-26T06:49:52;1.10;;;1.00;;
37425;SDS011;23285;50.180;7.036;2022-12-26T06:52:37;1.77;;;0.93;;
37425;SDS011;23285;50.180;7.036;2022-12-26T06:55:22;2.00;;;0.90;;
37425;SDS011;23285;50.180;7.036;2022-12-26T06:58:07;2.03;;;1.20;;
37425;SDS011;23285;50.180;7.036;2022-12-26T07:00:54;1.20;;;1.10;;
37425;SDS011;23285;50.180;7.036;2022-12-26T07:03:39;1.53;;;0.93;;
37425;SDS011;23285;50.180;7.036;2022-12-26T07:09:17;2.50;;;1.40;;
37425;SDS011;23285;50.180;7.036;2022-12-26T07:12:03;2.57;;;1.60;;
37425;SDS011;23285;50.180;7.036;2022-12-26T07:14:48;3.67;;;2.20;;
37425;SDS011;23285;50.180;7.036;2022-12-26T07:17:33;3.53;;;2.00;;
37425;SDS011;23285;50.180;7.036;2022-12-26T07:20:18;5.27;;;2.53;;
37425;SDS011;23285;50.180;7.036;2022-12-26T07:23:03;4.73;;;2.83;;
37425;SDS011;23285;50.180;7.036;2022-12-26T07:25:48;6.73;;;2.70;;
37425;SDS011;23285;50.180;7.036;2022-12-26T07:28:34;5.77;;;3.37;;
37425;SDS011;23285;50.180;7.036;2022-12-26T07:31:19;4.50;;;2.50;;
37425;SDS011;23285;50.180;7.036;2022-12-26T07:34:04;7.47;;;3.20;;
37425;SDS011;23285;50.180;7.036;2022-12-26T07:36:49;2.67;;;2.30;;
37425;SDS011;23285;50.180;7.036;2022-12-26T07:39:34;5.03;;;2.80;;
37425;SDS011;23285;50.180;7.036;2022-12-26T07:42:21;3.97;;;2.53;;
37425;SDS011;23285;50.180;7.036;2022-12-26T07:45:06;5.80;;;2.77;;
37425;SDS011;23285;50.180;7.036;2022-12-26T07:47:52;5.70;;;2.60;;
37425;SDS011;23285;50.180;7.036;2022-12-26T07:50:38;2.90;;;2.43;;
37425;SDS011;23285;50.180;7.036;2022-12-26T07:53:23;2.87;;;2.40;;
37425;SDS011;23285;50.180;7.036;2022-12-26T07:56:08;5.53;;;2.60;;
37425;SDS011;23285;50.180;7.036;2022-12-26T07:58:53;3.83;;;2.23;;
37425;SDS011;23285;50.180;7.036;2022-12-26T08:01:39;3.87;;;2.50;;
37425;SDS011;23285;50.180;7.036;2022-12-26T08:04:24;5.00;;;2.43;;
37425;SDS011;23285;50.180;7.036;2022-12-26T08:07:10;6.53;;;3.00;;
37425;SDS011;23285;50.180;7.036;2022-12-26T08:09:56;3.27;;;2.27;;
37425;SDS011;23285;50.180;7.036;2022-12-26T08:12:41;3.40;;;2.23;;
37425;SDS011;23285;50.180;7.036;2022-12-26T08:15:26;4.30;;;3.00;;
37425;SDS011;23285;50.180;7.036;2022-12-26T08:18:12;4.20;;;2.90;;
37425;SDS011;23285;50.180;7.036;2022-12-26T08:20:57;20.13;;;10.40;;
37425;SDS011;23285;50.180;7.036;2022-12-26T08:23:42;3.93;;;2.53;;
37425;SDS011;23285;50.180;7.036;2022-12-26T08:26:28;3.33;;;2.23;;
37425;SDS011;23285;50.180;7.036;2022-12-26T08:29:13;4.63;;;2.30;;
37425;SDS011;23285;50.180;7.036;2022-12-26T08:31:58;8.00;;;3.37;;
37425;SDS011;23285;50.180;7.036;2022-12-26T08:34:43;3.17;;;2.43;;
37425;SDS011;23285;50.180;7.036;2022-12-26T08:37:34;5.30;;;2.53;;
37425;SDS011;23285;50.180;7.036;2022-12-26T08:40:22;5.37;;;3.27;;
37425;SDS011;23285;50.180;7.036;2022-12-26T08:43:07;4.90;;;2.43;;
37425;SDS011;23285;50.180;7.036;2022-12-26T08:45:56;3.73;;;2.53;;
37425;SDS011;23285;50.180;7.036;2022-12-26T08:48:43;2.00;;;1.70;;
37425;SDS011;23285;50.180;7.036;2022-12-26T08:51:28;4.40;;;2.30;;
37425;SDS011;23285;50.180;7.036;2022-12-26T08:54:13;4.93;;;2.27;;
37425;SDS011;23285;50.180;7.036;2022-12-26T08:56:59;6.30;;;2.40;;
37425;SDS011;23285;50.180;7.036;2022-12-26T08:59:44;3.63;;;2.60;;
37425;SDS011;23285;50.180;7.036;2022-12-26T09:02:29;3.70;;;2.70;;
37425;SDS011;23285;50.180;7.036;2022-12-26T09:05:14;7.23;;;4.70;;
37425;SDS011;23285;50.180;7.036;2022-12-26T09:07:59;5.47;;;4.23;;
37425;SDS011;23285;50.180;7.036;2022-12-26T09:10:44;3.60;;;2.00;;
37425;SDS011;23285;50.180;7.036;2022-12-26T09:13:30;4.20;;;2.17;;
37425;SDS011;23285;50.180;7.036;2022-12-26T09:16:17;3.23;;;1.83;;
37425;SDS011;23285;50.180;7.036;2022-12-26T09:19:03;6.33;;;2.77;;
37425;SDS011;23285;50.180;7.036;2022-12-26T09:21:50;2.07;;;1.73;;
37425;SDS011;23285;50.180;7.036;2022-12-26T09:24:55;4.37;;;2.50;;
37425;SDS011;23285;50.180;7.036;2022-12-26T09:27:40;3.87;;;1.80;;
37425;SDS011;23285;50.180;7.036;2022-12-26T09:30:26;5.00;;;1.50;;
37425;SDS011;23285;50.180;7.036;2022-12-26T09:33:11;5.03;;;2.80;;
37425;SDS011;23285;50.180;7.036;2022-12-26T09:35:56;1.97;;;1.63;;
37425;SDS011;23285;50.180;7.036;2022-12-26T09:38:42;3.03;;;1.33;;
37425;SDS011;23285;50.180;7.036;2022-12-26T09:44:40;2.80;;;1.77;;
37425;SDS011;23285;50.180;7.036;2022-12-26T09:50:23;4.23;;;1.70;;
37425;SDS011;23285;50.180;7.036;2022-12-26T09:53:12;3.87;;;2.00;;
37425;SDS011;23285;50.180;7.036;2022-12-26T09:56:00;4.80;;;1.93;;
37425;SDS011;23285;50.180;7.036;2022-12-26T09:58:53;2.93;;;1.70;;
37425;SDS011;23285;50.180;7.036;2022-12-26T10:01:43;2.07;;;1.63;;
37425;SDS011;23285;50.180;7.036;2022-12-26T10:04:31;2.73;;;1.70;;
37425;SDS011;23285;50.180;7.036;2022-12-26T10:15:49;3.40;;;1.87;;
37425;SDS011;23285;50.180;7.036;2022-12-26T10:24:24;4.43;;;1.90;;
37425;SDS011;23285;50.180;7.036;2022-12-26T10:27:17;3.70;;;2.10;;
37425;SDS011;23285;50.180;7.036;2022-12-26T10:30:05;5.27;;;2.33;;
37425;SDS011;23285;50.180;7.036;2022-12-26T10:32:52;5.33;;;2.90;;
37425;SDS011;23285;50.180;7.036;2022-12-26T10:35:41;3.90;;;1.60;;
37425;SDS011;23285;50.180;7.036;2022-12-26T10:41:17;3.23;;;1.53;;
37425;SDS011;23285;50.180;7.036;2022-12-26T10:44:09;2.50;;;1.40;;
37425;SDS011;23285;50.180;7.036;2022-12-26T10:49:59;2.60;;;1.53;;
37425;SDS011;23285;50.180;7.036;2022-12-26T10:52:45;2.10;;;1.47;;
37425;SDS011;23285;50.180;7.036;2022-12-26T10:55:32;3.90;;;1.97;;
37425;SDS011;23285;50.180;7.036;2022-12-26T10:58:22;3.63;;;1.50;;
37425;SDS011;23285;50.180;7.036;2022-12-26T11:01:30;1.10;;;1.00;;
37425;SDS011;23285;50.180;7.036;2022-12-26T11:04:21;3.43;;;1.40;;
37425;SDS011;23285;50.180;7.036;2022-12-26T11:07:09;3.17;;;1.40;;
37425;SDS011;23285;50.180;7.036;2022-12-26T11:09:55;2.73;;;1.50;;
37425;SDS011;23285;50.180;7.036;2022-12-26T11:12:44;5.07;;;1.73;;
37425;SDS011;23285;50.180;7.036;2022-12-26T11:16:09;3.53;;;1.57;;
37425;SDS011;23285;50.180;7.036;2022-12-26T11:18:49;1.60;;;1.17;;
37425;SDS011;23285;50.180;7.036;2022-12-26T11:21:35;2.00;;;1.27;;
37425;SDS011;23285;50.180;7.036;2022-12-26T11:24:20;2.90;;;1.20;;
37425;SDS011;23285;50.180;7.036;2022-12-26T11:27:26;3.17;;;1.10;;
37425;SDS011;23285;50.180;7.036;2022-12-26T11:30:28;1.20;;;1.00;;
37425;SDS011;23285;50.180;7.036;2022-12-26T11:38:59;2.50;;;1.10;;
37425;SDS011;23285;50.180;7.036;2022-12-26T11:41:50;2.90;;;1.37;;
37425;SDS011;23285;50.180;7.036;2022-12-26T11:44:35;3.13;;;1.17;;
37425;SDS011;23285;50.180;7.036;2022-12-26T11:47:25;2.50;;;1.10;;
37425;SDS011;23285;50.180;7.036;2022-12-26T11:50:12;1.63;;;1.00;;
37425;SDS011;23285;50.180;7.036;2022-12-26T11:53:05;1.90;;;1.10;;
37425;SDS011;23285;50.180;7.036;2022-12-26T11:56:00;1.90;;;0.87;;
37425;SDS011;23285;50.180;7.036;2022-12-26T11:58:48;5.30;;;1.30;;
37425;SDS011;23285;50.180;7.036;2022-12-26T12:01:33;2.87;;;0.90;;
37425;SDS011;23285;50.180;7.036;2022-12-26T12:04:18;3.13;;;1.47;;
37425;SDS011;23285;50.180;7.036;2022-12-26T12:07:16;3.63;;;1.33;;
37425;SDS011;23285;50.180;7.036;2022-12-26T12:31:00;2.90;;;1.20;;
37425;SDS011;23285;50.180;7.036;2022-12-26T12:36:49;1.07;;;0.80;;
37425;SDS011;23285;50.180;7.036;2022-12-26T12:45:51;2.67;;;1.00;;
37425;SDS011;23285;50.180;7.036;2022-12-26T13:01:09;4.83;;;0.90;;
37425;SDS011;23285;50.180;7.036;2022-12-26T13:03:58;3.20;;;0.90;;
37425;SDS011;23285;50.180;7.036;2022-12-26T13:06:58;2.10;;;0.80;;
37425;SDS011;23285;50.180;7.036;2022-12-26T13:09:58;1.23;;;0.67;;
37425;SDS011;23285;50.180;7.036;2022-12-26T13:12:46;0.67;;;0.60;;
37425;SDS011;23285;50.180;7.036;2022-12-26T13:15:34;1.93;;;0.80;;
37425;SDS011;23285;50.180;7.036;2022-12-26T13:18:27;2.10;;;0.90;;
37425;SDS011;23285;50.180;7.036;2022-12-26T13:21:14;1.33;;;0.63;;
37425;SDS011;23285;50.180;7.036;2022-12-26T13:24:03;0.83;;;0.77;;
37425;SDS011;23285;50.180;7.036;2022-12-26T13:27:26;0.80;;;0.60;;
37425;SDS011;23285;50.180;7.036;2022-12-26T13:30:19;1.33;;;0.80;;
37425;SDS011;23285;50.180;7.036;2022-12-26T13:33:05;1.13;;;0.80;;
37425;SDS011;23285;50.180;7.036;2022-12-26T13:35:59;1.27;;;0.70;;
37425;SDS011;23285;50.180;7.036;2022-12-26T13:41:48;2.50;;;1.00;;
37425;SDS011;23285;50.180;7.036;2022-12-26T13:45:37;1.90;;;0.80;;
37425;SDS011;23285;50.180;7.036;2022-12-26T13:51:00;1.67;;;0.90;;
37425;SDS011;23285;50.180;7.036;2022-12-26T13:53:54;1.30;;;0.90;;
37425;SDS011;23285;50.180;7.036;2022-12-26T13:59:29;3.53;;;1.10;;
37425;SDS011;23285;50.180;7.036;2022-12-26T14:02:27;2.73;;;1.20;;
37425;SDS011;23285;50.180;7.036;2022-12-26T14:09:11;3.50;;;1.87;;
37425;SDS011;23285;50.180;7.036;2022-12-26T14:20:39;1.63;;;0.97;;
37425;SDS011;23285;50.180;7.036;2022-12-26T14:29:10;2.90;;;1.60;;
37425;SDS011;23285;50.180;7.036;2022-12-26T14:32:10;3.03;;;1.30;;
37425;SDS011;23285;50.180;7.036;2022-12-26T14:40:59;4.57;;;2.13;;
37425;SDS011;23285;50.180;7.036;2022-12-26T14:43:50;3.93;;;1.47;;
37425;SDS011;23285;50.180;7.036;2022-12-26T14:55:37;3.97;;;1.33;;
37425;SDS011;23285;50.180;7.036;2022-12-26T15:10:41;3.37;;;1.40;;
37425;SDS011;23285;50.180;7.036;2022-12-26T15:35:03;1.20;;;0.70;;
37425;SDS011;23285;50.180;7.036;2022-12-26T15:38:16;2.33;;;0.60;;
37425;SDS011;23285;50.180;7.036;2022-12-26T15:47:15;3.50;;;0.90;;
37425;SDS011;23285;50.180;7.036;2022-12-26T15:56:19;1.63;;;0.60;;
37425;SDS011;23285;50.180;7.036;2022-12-26T16:11:19;2.13;;;1.93;;
37425;SDS011;23285;50.180;7.036;2022-12-26T16:14:09;2.77;;;1.07;;
37425;SDS011;23285;50.180;7.036;2022-12-26T16:19:58;0.97;;;0.70;;
37425;SDS011;23285;50.180;7.036;2022-12-26T16:22:43;2.53;;;0.60;;
37425;SDS011;23285;50.180;7.036;2022-12-26T16:25:30;0.60;;;0.60;;
37425;SDS011;23285;50.180;7.036;2022-12-26T16:28:16;2.97;;;1.30;;
37425;SDS011;23285;50.180;7.036;2022-12-26T16:31:03;0.50;;;0.50;;
37425;SDS011;23285;50.180;7.036;2022-12-26T16:33:49;1.53;;;0.80;;
37425;SDS011;23285;50.180;7.036;2022-12-26T16:36:35;1.43;;;0.90;;
37425;SDS011;23285;50.180;7.036;2022-12-26T16:39:21;1.87;;;0.93;;
37425;SDS011;23285;50.180;7.036;2022-12-26T16:42:11;0.87;;;0.80;;
37425;SDS011;23285;50.180;7.036;2022-12-26T16:45:16;1.92;;;0.95;;
37425;SDS011;23285;50.180;7.036;2022-12-26T16:48:06;1.85;;;0.80;;
37425;SDS011;23285;50.180;7.036;2022-12-26T16:56:30;1.40;;;1.00;;
37425;SDS011;23285;50.180;7.036;2022-12-26T16:59:21;1.90;;;0.67;;
37425;SDS011;23285;50.180;7.036;2022-12-26T17:02:19;0.80;;;0.80;;
37425;SDS011;23285;50.180;7.036;2022-12-26T17:05:15;0.70;;;0.70;;
37425;SDS011;23285;50.180;7.036;2022-12-26T17:08:01;0.87;;;0.70;;
37425;SDS011;23285;50.180;7.036;2022-12-26T17:10:48;1.47;;;0.80;;
37425;SDS011;23285;50.180;7.036;2022-12-26T17:13:34;1.00;;;0.90;;
37425;SDS011;23285;50.180;7.036;2022-12-26T17:16:23;1.50;;;1.07;;
37425;SDS011;23285;50.180;7.036;2022-12-26T17:19:18;1.50;;;0.80;;
37425;SDS011;23285;50.180;7.036;2022-12-26T17:28:20;2.90;;;1.00;;
37425;SDS011;23285;50.180;7.036;2022-12-26T17:31:10;1.80;;;1.00;;
37425;SDS011;23285;50.180;7.036;2022-12-26T17:33:57;2.17;;;1.20;;
37425;SDS011;23285;50.180;7.036;2022-12-26T17:36:42;4.53;;;1.10;;
37425;SDS011;23285;50.180;7.036;2022-12-26T17:39:27;3.37;;;1.07;;
37425;SDS011;23285;50.180;7.036;2022-12-26T17:42:13;3.83;;;1.13;;
37425;SDS011;23285;50.180;7.036;2022-12-26T17:44:59;3.80;;;1.10;;
37425;SDS011;23285;50.180;7.036;2022-12-26T17:47:44;2.50;;;1.10;;
37425;SDS011;23285;50.180;7.036;2022-12-26T17:50:30;3.47;;;1.23;;
37425;SDS011;23285;50.180;7.036;2022-12-26T17:56:07;1.70;;;0.93;;
37425;SDS011;23285;50.180;7.036;2022-12-26T17:58:56;2.33;;;1.10;;
37425;SDS011;23285;50.180;7.036;2022-12-26T18:01:41;1.23;;;0.87;;
37425;SDS011;23285;50.180;7.036;2022-12-26T18:04:26;3.47;;;0.93;;
37425;SDS011;23285;50.180;7.036;2022-12-26T18:07:14;2.97;;;1.00;;
37425;SDS011;23285;50.180;7.036;2022-12-26T18:10:05;2.93;;;1.23;;
37425;SDS011;23285;50.180;7.036;2022-12-26T18:12:50;2.23;;;1.03;;
37425;SDS011;23285;50.180;7.036;2022-12-26T18:15:35;2.37;;;1.03;;
37425;SDS011;23285;50.180;7.036;2022-12-26T18:18:22;3.40;;;1.30;;
37425;SDS011;23285;50.180;7.036;2022-12-26T18:21:14;4.30;;;1.23;;
37425;SDS011;23285;50.180;7.036;2022-12-26T18:24:00;2.20;;;1.40;;
37425;SDS011;23285;50.180;7.036;2022-12-26T18:26:45;5.73;;;1.50;;
37425;SDS011;23285;50.180;7.036;2022-12-26T18:29:32;1.77;;;1.30;;
37425;SDS011;23285;50.180;7.036;2022-12-26T18:32:24;5.27;;;1.33;;
37425;SDS011;23285;50.180;7.036;2022-12-26T18:35:11;3.73;;;1.27;;
37425;SDS011;23285;50.180;7.036;2022-12-26T18:37:56;3.53;;;1.40;;
37425;SDS011;23285;50.180;7.036;2022-12-26T18:40:42;2.03;;;1.10;;
37425;SDS011;23285;50.180;7.036;2022-12-26T18:43:33;2.60;;;1.60;;
37425;SDS011;23285;50.180;7.036;2022-12-26T18:46:19;3.47;;;1.37;;
37425;SDS011;23285;50.180;7.036;2022-12-26T18:49:08;6.27;;;1.80;;
37425;SDS011;23285;50.180;7.036;2022-12-26T18:51:53;2.10;;;1.27;;
37425;SDS011;23285;50.180;7.036;2022-12-26T18:54:38;4.80;;;1.57;;
37425;SDS011;23285;50.180;7.036;2022-12-26T18:57:23;2.97;;;1.13;;
37425;SDS011;23285;50.180;7.036;2022-12-26T19:00:11;4.43;;;1.40;;
37425;SDS011;23285;50.180;7.036;2022-12-26T19:02:57;4.23;;;1.10;;
37425;SDS011;23285;50.180;7.036;2022-12-26T19:05:42;3.07;;;1.30;;
37425;SDS011;23285;50.180;7.036;2022-12-26T19:08:27;1.93;;;1.33;;
37425;SDS011;23285;50.180;7.036;2022-12-26T19:11:12;4.47;;;1.60;;
37425;SDS011;23285;50.180;7.036;2022-12-26T19:13:58;1.67;;;1.30;;
37425;SDS011;23285;50.180;7.036;2022-12-26T19:16:44;3.30;;;1.13;;
37425;SDS011;23285;50.180;7.036;2022-12-26T19:19:29;3.53;;;1.43;;
37425;SDS011;23285;50.180;7.036;2022-12-26T19:22:15;1.77;;;1.30;;
37425;SDS011;23285;50.180;7.036;2022-12-26T19:25:00;1.77;;;0.90;;
37425;SDS011;23285;50.180;7.036;2022-12-26T19:27:46;4.73;;;1.57;;
37425;SDS011;23285;50.180;7.036;2022-12-26T19:30:31;5.03;;;2.13;;
37425;SDS011;23285;50.180;7.036;2022-12-26T19:33:16;3.23;;;1.97;;
37425;SDS011;23285;50.180;7.036;2022-12-26T19:36:03;5.60;;;2.10;;
37425;SDS011;23285;50.180;7.036;2022-12-26T19:38:51;2.93;;;1.87;;
37425;SDS011;23285;50.180;7.036;2022-12-26T19:41:37;4.50;;;1.87;;
37425;SDS011;23285;50.180;7.036;2022-12-26T19:44:22;4.80;;;2.30;;
37425;SDS011;23285;50.180;7.036;2022-12-26T19:47:07;4.27;;;1.93;;
37425;SDS011;23285;50.180;7.036;2022-12-26T19:49:52;4.17;;;2.00;;
37425;SDS011;23285;50.180;7.036;2022-12-26T19:52:37;6.03;;;2.10;;
37425;SDS011;23285;50.180;7.036;2022-12-26T19:55:24;6.07;;;1.90;;
37425;SDS011;23285;50.180;7.036;2022-12-26T19:58:09;3.10;;;1.90;;
37425;SDS011;23285;50.180;7.036;2022-12-26T20:00:54;2.77;;;2.00;;
37425;SDS011;23285;50.180;7.036;2022-12-26T20:03:39;3.47;;;2.13;;
37425;SDS011;23285;50.180;7.036;2022-12-26T20:06:25;6.00;;;2.23;;
37425;SDS011;23285;50.180;7.036;2022-12-26T20:09:11;9.83;;;2.80;;
37425;SDS011;23285;50.180;7.036;2022-12-26T20:11:57;6.00;;;3.03;;
37425;SDS011;23285;50.180;7.036;2022-12-26T20:14:42;6.20;;;3.03;;
37425;SDS011;23285;50.180;7.036;2022-12-26T20:17:28;6.33;;;3.20;;
37425;SDS011;23285;50.180;7.036;2022-12-26T20:20:13;5.67;;;2.60;;
37425;SDS011;23285;50.180;7.036;2022-12-26T20:22:58;5.67;;;3.03;;
37425;SDS011;23285;50.180;7.036;2022-12-26T20:25:43;6.30;;;2.90;;
37425;SDS011;23285;50.180;7.036;2022-12-26T20:28:28;8.47;;;3.33;;
37425;SDS011;23285;50.180;7.036;2022-12-26T20:31:16;4.20;;;2.90;;
37425;SDS011;23285;50.180;7.036;2022-12-26T20:34:03;4.03;;;2.67;;
37425;SDS011;23285;50.180;7.036;2022-12-26T20:36:49;7.70;;;2.87;;
37425;SDS011;23285;50.180;7.036;2022-12-26T20:39:34;7.00;;;3.30;;
37425;SDS011;23285;50.180;7.036;2022-12-26T20:42:19;3.47;;;2.67;;
37425;SDS011;23285;50.180;7.036;2022-12-26T20:45:04;7.20;;;3.27;;
37425;SDS011;23285;50.180;7.036;2022-12-26T20:47:50;9.33;;;3.87;;
37425;SDS011;23285;50.180;7.036;2022-12-26T20:50:35;10.13;;;3.63;;
37425;SDS011;23285;50.180;7.036;2022-12-26T20:53:20;8.80;;;3.67;;
37425;SDS011;23285;50.180;7.036;2022-12-26T20:56:05;6.37;;;3.70;;
37425;SDS011;23285;50.180;7.036;2022-12-26T20:58:51;12.77;;;4.20;;
37425;SDS011;23285;50.180;7.036;2022-12-26T21:01:35;6.47;;;3.53;;
37425;SDS011;23285;50.180;7.036;2022-12-26T21:04:23;8.30;;;3.30;;
37425;SDS011;23285;50.180;7.036;2022-12-26T21:07:07;10.47;;;3.73;;